sensor_id;sensor_type;location;lat;lon;timestamp;temperature;humidity
11629;DHT22;5870;52.320;4.970;2022-08-11T00:01:51;23.50;99.90
11629;DHT22;5870;52.320;4.970;2022-08-11T00:04:21;23.40;99.90
11629;DHT22;5870;52.320;4.970;2022-08-11T00:06:48;23.40;99.90
11629;DHT22;5870;52.320;4.970;2022-08-11T00:09:19;23.40;99.90
11629;DHT22;5870;52.320;4.970;2022-08-11T00:11:53;23.30;99.90
11629;DHT22;5870;52.320;4.970;2022-08-11T00:14:23;23.30;99.90
11629;DHT22;5870;52.320;4.970;2022-08-11T00:17:09;23.30;99.90
11629;DHT22;5870;52.320;4.970;2022-08-11T00:19:46;23.20;99.90
11629;DHT22;5870;52.320;4.970;2022-08-11T00:22:19;23.20;99.90
11629;DHT22;5870;52.320;4.970;2022-08-11T00:24:46;23.20;99.90
11629;DHT22;5870;52.320;4.970;2022-08-11T00:27:12;23.20;99.90
11629;DHT22;5870;52.320;4.970;2022-08-11T00:29:38;23.30;99.90
11629;DHT22;5870;52.320;4.970;2022-08-11T00:32:06;23.30;99.90
11629;DHT22;5870;52.320;4.970;2022-08-11T00:34:38;23.20;99.90
11629;DHT22;5870;52.320;4.970;2022-08-11T00:37:10;23.20;99.90
11629;DHT22;5870;52.320;4.970;2022-08-11T00:39:47;23.10;99.90
11629;DHT22;5870;52.320;4.970;2022-08-11T00:42:21;23.10;99.90
11629;DHT22;5870;52.320;4.970;2022-08-11T00:45:28;23.10;99.90
11629;DHT22;5870;52.320;4.970;2022-08-11T00:48:10;23.10;99.90
11629;DHT22;5870;52.320;4.970;2022-08-11T00:50:59;23.00;99.90
11629;DHT22;5870;52.320;4.970;2022-08-11T01:02:18;23.00;99.90
11629;DHT22;5870;52.320;4.970;2022-08-11T01:10:51;22.70;99.90
11629;DHT22;5870;52.320;4.970;2022-08-11T01:18:59;22.70;99.90
11629;DHT22;5870;52.320;4.970;2022-08-11T01:38:13;22.60;99.90
11629;DHT22;5870;52.320;4.970;2022-08-11T01:40:55;22.70;99.90
11629;DHT22;5870;52.320;4.970;2022-08-11T01:43:51;22.60;99.90
11629;DHT22;5870;52.320;4.970;2022-08-11T01:46:48;22.50;99.90
11629;DHT22;5870;52.320;4.970;2022-08-11T01:49:20;22.50;99.90
11629;DHT22;5870;52.320;4.970;2022-08-11T01:51:57;22.50;99.90
11629;DHT22;5870;52.320;4.970;2022-08-11T01:54:36;22.50;99.90
11629;DHT22;5870;52.320;4.970;2022-08-11T02:00:09;22.40;99.90
11629;DHT22;5870;52.320;4.970;2022-08-11T02:03:00;22.40;99.90
11629;DHT22;5870;52.320;4.970;2022-08-11T02:11:25;22.30;99.90
11629;DHT22;5870;52.320;4.970;2022-08-11T02:14:20;22.30;99.90
11629;DHT22;5870;52.320;4.970;2022-08-11T02:19:56;22.10;99.90
11629;DHT22;5870;52.320;4.970;2022-08-11T02:28:26;22.00;99.90
11629;DHT22;5870;52.320;4.970;2022-08-11T02:36:58;21.90;99.90
11629;DHT22;5870;52.320;4.970;2022-08-11T02:39:35;21.90;99.90
11629;DHT22;5870;52.320;4.970;2022-08-11T02:42:22;21.90;99.90
11629;DHT22;5870;52.320;4.970;2022-08-11T02:48:13;21.90;99.90
11629;DHT22;5870;52.320;4.970;2022-08-11T02:59:16;22.00;99.90
11629;DHT22;5870;52.320;4.970;2022-08-11T03:07:50;21.70;99.90
11629;DHT22;5870;52.320;4.970;2022-08-11T03:13:21;21.60;99.90
11629;DHT22;5870;52.320;4.970;2022-08-11T03:16:25;21.60;99.90
11629;DHT22;5870;52.320;4.970;2022-08-11T03:27:26;21.40;99.90
11629;DHT22;5870;52.320;4.970;2022-08-11T03:35:40;21.50;99.90
11629;DHT22;5870;52.320;4.970;2022-08-11T03:38:13;21.50;99.90
11629;DHT22;5870;52.320;4.970;2022-08-11T03:41:10;21.40;99.90
11629;DHT22;5870;52.320;4.970;2022-08-11T03:44:05;21.40;99.90
11629;DHT22;5870;52.320;4.970;2022-08-11T03:49:30;21.30;99.90
11629;DHT22;5870;52.320;4.970;2022-08-11T03:58:28;21.20;99.90
11629;DHT22;5870;52.320;4.970;2022-08-11T04:04:15;21.20;99.90
11629;DHT22;5870;52.320;4.970;2022-08-11T04:07:22;21.20;99.90
11629;DHT22;5870;52.320;4.970;2022-08-11T04:19:27;21.30;99.90
11629;DHT22;5870;52.320;4.970;2022-08-11T04:22:26;21.40;99.90
11629;DHT22;5870;52.320;4.970;2022-08-11T04:25:08;21.40;99.90
11629;DHT22;5870;52.320;4.970;2022-08-11T04:30:27;21.40;99.90
11629;DHT22;5870;52.320;4.970;2022-08-11T04:33:08;21.50;99.90
11629;DHT22;5870;52.320;4.970;2022-08-11T04:41:50;21.50;99.90
11629;DHT22;5870;52.320;4.970;2022-08-11T04:48:00;21.50;99.90
11629;DHT22;5870;52.320;4.970;2022-08-11T04:57:21;21.70;99.90
11629;DHT22;5870;52.320;4.970;2022-08-11T05:00:13;21.70;99.90
11629;DHT22;5870;52.320;4.970;2022-08-11T05:03:12;21.70;99.90
11629;DHT22;5870;52.320;4.970;2022-08-11T05:13:46;21.70;99.90
11629;DHT22;5870;52.320;4.970;2022-08-11T05:16:34;21.70;99.90
11629;DHT22;5870;52.320;4.970;2022-08-11T05:19:24;21.70;99.90
11629;DHT22;5870;52.320;4.970;2022-08-11T05:22:11;21.80;99.90
11629;DHT22;5870;52.320;4.970;2022-08-11T05:25:11;21.80;99.90
11629;DHT22;5870;52.320;4.970;2022-08-11T05:28:02;22.00;99.90
11629;DHT22;5870;52.320;4.970;2022-08-11T05:30:48;22.00;99.90
11629;DHT22;5870;52.320;4.970;2022-08-11T05:33:53;22.00;99.90
11629;DHT22;5870;52.320;4.970;2022-08-11T05:36:52;22.00;99.90
11629;DHT22;5870;52.320;4.970;2022-08-11T05:39:23;22.00;99.90
11629;DHT22;5870;52.320;4.970;2022-08-11T05:42:07;22.10;99.90
11629;DHT22;5870;52.320;4.970;2022-08-11T05:45:00;22.20;99.90
11629;DHT22;5870;52.320;4.970;2022-08-11T05:47:50;22.20;99.90
11629;DHT22;5870;52.320;4.970;2022-08-11T05:50:35;22.20;99.90
11629;DHT22;5870;52.320;4.970;2022-08-11T05:53:21;22.20;99.90
11629;DHT22;5870;52.320;4.970;2022-08-11T05:56:07;22.20;99.90
11629;DHT22;5870;52.320;4.970;2022-08-11T05:58:52;22.20;99.90
11629;DHT22;5870;52.320;4.970;2022-08-11T06:01:24;22.20;99.90
11629;DHT22;5870;52.320;4.970;2022-08-11T06:03:53;22.20;99.90
11629;DHT22;5870;52.320;4.970;2022-08-11T06:06:48;22.30;99.90
11629;DHT22;5870;52.320;4.970;2022-08-11T06:09:23;22.40;99.90
11629;DHT22;5870;52.320;4.970;2022-08-11T06:11:50;22.40;99.90
11629;DHT22;5870;52.320;4.970;2022-08-11T06:14:17;22.50;99.90
11629;DHT22;5870;52.320;4.970;2022-08-11T06:16:48;22.60;99.90
11629;DHT22;5870;52.320;4.970;2022-08-11T06:19:15;22.60;99.90
11629;DHT22;5870;52.320;4.970;2022-08-11T06:21:45;22.70;99.90
11629;DHT22;5870;52.320;4.970;2022-08-11T06:24:13;22.80;99.90
11629;DHT22;5870;52.320;4.970;2022-08-11T06:26:48;22.90;99.90
11629;DHT22;5870;52.320;4.970;2022-08-11T06:29:14;22.90;99.90
11629;DHT22;5870;52.320;4.970;2022-08-11T06:31:52;22.90;99.90
11629;DHT22;5870;52.320;4.970;2022-08-11T06:34:34;22.90;99.90
11629;DHT22;5870;52.320;4.970;2022-08-11T06:37:22;22.90;99.90
11629;DHT22;5870;52.320;4.970;2022-08-11T06:40:10;22.90;99.90
11629;DHT22;5870;52.320;4.970;2022-08-11T06:42:47;22.90;99.90
11629;DHT22;5870;52.320;4.970;2022-08-11T06:47:46;22.90;99.90
11629;DHT22;5870;52.320;4.970;2022-08-11T06:50:18;23.00;99.90
11629;DHT22;5870;52.320;4.970;2022-08-11T06:53:05;23.00;99.90
11629;DHT22;5870;52.320;4.970;2022-08-11T06:55:33;22.90;99.90
11629;DHT22;5870;52.320;4.970;2022-08-11T06:58:20;22.90;99.90
11629;DHT22;5870;52.320;4.970;2022-08-11T07:01:12;23.00;99.90
11629;DHT22;5870;52.320;4.970;2022-08-11T07:03:46;23.10;99.90
11629;DHT22;5870;52.320;4.970;2022-08-11T07:06:38;23.10;99.90
11629;DHT22;5870;52.320;4.970;2022-08-11T07:15:14;23.20;99.90
11629;DHT22;5870;52.320;4.970;2022-08-11T07:18:02;23.20;99.90
11629;DHT22;5870;52.320;4.970;2022-08-11T07:20:51;23.20;99.90
11629;DHT22;5870;52.320;4.970;2022-08-11T07:23:36;23.20;99.90
11629;DHT22;5870;52.320;4.970;2022-08-11T07:26:23;23.30;99.90
11629;DHT22;5870;52.320;4.970;2022-08-11T07:29:11;23.40;99.90
11629;DHT22;5870;52.320;4.970;2022-08-11T07:31:44;23.50;99.90
11629;DHT22;5870;52.320;4.970;2022-08-11T07:34:37;23.50;99.90
11629;DHT22;5870;52.320;4.970;2022-08-11T07:37:14;23.50;99.90
11629;DHT22;5870;52.320;4.970;2022-08-11T07:39:43;23.50;99.90
11629;DHT22;5870;52.320;4.970;2022-08-11T07:42:12;23.50;99.90
11629;DHT22;5870;52.320;4.970;2022-08-11T07:44:40;23.50;99.90
11629;DHT22;5870;52.320;4.970;2022-08-11T07:47:25;23.60;99.90
11629;DHT22;5870;52.320;4.970;2022-08-11T07:50:10;23.70;99.90
11629;DHT22;5870;52.320;4.970;2022-08-11T07:52:57;23.80;99.90
11629;DHT22;5870;52.320;4.970;2022-08-11T07:55:24;23.80;99.90
11629;DHT22;5870;52.320;4.970;2022-08-11T07:57:51;23.80;99.90
11629;DHT22;5870;52.320;4.970;2022-08-11T08:00:41;23.80;99.90
11629;DHT22;5870;52.320;4.970;2022-08-11T08:03:28;23.90;99.90
11629;DHT22;5870;52.320;4.970;2022-08-11T08:06:14;24.00;99.90
11629;DHT22;5870;52.320;4.970;2022-08-11T08:08:59;24.00;99.90
11629;DHT22;5870;52.320;4.970;2022-08-11T08:11:44;24.00;99.90
11629;DHT22;5870;52.320;4.970;2022-08-11T08:14:29;24.10;99.90
11629;DHT22;5870;52.320;4.970;2022-08-11T08:17:14;24.20;99.90
11629;DHT22;5870;52.320;4.970;2022-08-11T08:19:58;24.20;99.90
11629;DHT22;5870;52.320;4.970;2022-08-11T08:22:25;24.30;99.90
11629;DHT22;5870;52.320;4.970;2022-08-11T08:24:51;24.30;99.90
11629;DHT22;5870;52.320;4.970;2022-08-11T08:27:19;24.30;99.90
11629;DHT22;5870;52.320;4.970;2022-08-11T08:29:46;24.30;99.90
11629;DHT22;5870;52.320;4.970;2022-08-11T08:32:30;24.30;99.90
11629;DHT22;5870;52.320;4.970;2022-08-11T08:34:57;24.30;99.90
11629;DHT22;5870;52.320;4.970;2022-08-11T08:37:25;24.40;99.90
11629;DHT22;5870;52.320;4.970;2022-08-11T08:39:54;24.50;99.90
11629;DHT22;5870;52.320;4.970;2022-08-11T08:42:28;24.50;99.90
11629;DHT22;5870;52.320;4.970;2022-08-11T08:45:06;24.60;99.90
11629;DHT22;5870;52.320;4.970;2022-08-11T08:47:41;24.70;99.90
11629;DHT22;5870;52.320;4.970;2022-08-11T08:50:10;24.70;99.90
11629;DHT22;5870;52.320;4.970;2022-08-11T08:52:42;24.70;99.90
11629;DHT22;5870;52.320;4.970;2022-08-11T08:55:18;24.70;99.90
11629;DHT22;5870;52.320;4.970;2022-08-11T08:57:46;24.70;99.90
11629;DHT22;5870;52.320;4.970;2022-08-11T09:00:14;24.80;99.90
11629;DHT22;5870;52.320;4.970;2022-08-11T09:02:41;23.50;99.90
11629;DHT22;5870;52.320;4.970;2022-08-11T09:05:08;24.90;99.90
11629;DHT22;5870;52.320;4.970;2022-08-11T09:07:35;24.90;99.90
11629;DHT22;5870;52.320;4.970;2022-08-11T09:10:02;24.90;99.90
11629;DHT22;5870;52.320;4.970;2022-08-11T09:12:31;24.80;99.90
11629;DHT22;5870;52.320;4.970;2022-08-11T09:14:57;24.90;99.90
11629;DHT22;5870;52.320;4.970;2022-08-11T09:17:45;24.90;99.90
11629;DHT22;5870;52.320;4.970;2022-08-11T09:22:43;24.90;99.90
11629;DHT22;5870;52.320;4.970;2022-08-11T09:25:30;25.00;99.90
11629;DHT22;5870;52.320;4.970;2022-08-11T09:28:15;25.00;99.90
11629;DHT22;5870;52.320;4.970;2022-08-11T09:30:43;25.10;99.90
11629;DHT22;5870;52.320;4.970;2022-08-11T09:33:13;25.10;99.90
11629;DHT22;5870;52.320;4.970;2022-08-11T09:35:40;25.10;99.90
11629;DHT22;5870;52.320;4.970;2022-08-11T09:38:12;25.10;99.90
11629;DHT22;5870;52.320;4.970;2022-08-11T09:40:57;25.10;99.90
11629;DHT22;5870;52.320;4.970;2022-08-11T09:43:25;25.10;99.90
11629;DHT22;5870;52.320;4.970;2022-08-11T09:46:11;25.10;99.90
11629;DHT22;5870;52.320;4.970;2022-08-11T09:48:43;25.30;99.90
11629;DHT22;5870;52.320;4.970;2022-08-11T09:51:09;25.30;99.90
11629;DHT22;5870;52.320;4.970;2022-08-11T09:53:40;25.30;99.90
11629;DHT22;5870;52.320;4.970;2022-08-11T09:56:10;25.30;99.90
11629;DHT22;5870;52.320;4.970;2022-08-11T09:58:55;25.30;99.90
11629;DHT22;5870;52.320;4.970;2022-08-11T10:01:23;25.40;99.90
11629;DHT22;5870;52.320;4.970;2022-08-11T10:04:04;25.50;99.90
11629;DHT22;5870;52.320;4.970;2022-08-11T10:06:34;25.40;99.90
11629;DHT22;5870;52.320;4.970;2022-08-11T10:09:22;25.50;99.90
11629;DHT22;5870;52.320;4.970;2022-08-11T10:11:48;25.50;99.90
11629;DHT22;5870;52.320;4.970;2022-08-11T10:14:17;25.50;99.90
11629;DHT22;5870;52.320;4.970;2022-08-11T10:17:07;25.50;99.90
11629;DHT22;5870;52.320;4.970;2022-08-11T10:19:34;25.60;99.90
11629;DHT22;5870;52.320;4.970;2022-08-11T10:22:04;25.70;99.90
11629;DHT22;5870;52.320;4.970;2022-08-11T10:24:51;25.70;99.90
11629;DHT22;5870;52.320;4.970;2022-08-11T10:27:38;25.80;99.90
11629;DHT22;5870;52.320;4.970;2022-08-11T10:30:06;25.80;99.90
11629;DHT22;5870;52.320;4.970;2022-08-11T10:32:50;25.80;99.90
11629;DHT22;5870;52.320;4.970;2022-08-11T10:35:35;25.90;99.90
11629;DHT22;5870;52.320;4.970;2022-08-11T10:38:03;26.00;99.90
11629;DHT22;5870;52.320;4.970;2022-08-11T10:40:29;26.10;99.90
11629;DHT22;5870;52.320;4.970;2022-08-11T10:42:58;26.10;99.90
11629;DHT22;5870;52.320;4.970;2022-08-11T10:45:34;26.10;99.90
11629;DHT22;5870;52.320;4.970;2022-08-11T10:48:21;26.00;99.90
11629;DHT22;5870;52.320;4.970;2022-08-11T10:50:50;26.10;99.90
11629;DHT22;5870;52.320;4.970;2022-08-11T10:53:45;26.10;99.90
11629;DHT22;5870;52.320;4.970;2022-08-11T10:56:36;26.20;99.90
11629;DHT22;5870;52.320;4.970;2022-08-11T10:59:22;26.30;99.90
11629;DHT22;5870;52.320;4.970;2022-08-11T11:01:50;26.30;99.90
11629;DHT22;5870;52.320;4.970;2022-08-11T11:04:20;26.50;99.90
11629;DHT22;5870;52.320;4.970;2022-08-11T11:07:03;26.50;99.90
11629;DHT22;5870;52.320;4.970;2022-08-11T11:09:33;26.60;99.90
11629;DHT22;5870;52.320;4.970;2022-08-11T11:12:09;26.60;99.90
11629;DHT22;5870;52.320;4.970;2022-08-11T11:15:05;26.70;99.90
11629;DHT22;5870;52.320;4.970;2022-08-11T11:18:01;26.70;99.90
11629;DHT22;5870;52.320;4.970;2022-08-11T11:23:07;27.00;99.90
11629;DHT22;5870;52.320;4.970;2022-08-11T11:25:45;27.10;99.90
11629;DHT22;5870;52.320;4.970;2022-08-11T11:34:37;27.40;99.90
11629;DHT22;5870;52.320;4.970;2022-08-11T11:37:06;27.50;99.90
11629;DHT22;5870;52.320;4.970;2022-08-11T11:39:32;27.50;99.90
11629;DHT22;5870;52.320;4.970;2022-08-11T11:42:06;27.50;99.90
11629;DHT22;5870;52.320;4.970;2022-08-11T11:44:33;27.50;99.90
11629;DHT22;5870;52.320;4.970;2022-08-11T11:47:00;27.60;99.90
11629;DHT22;5870;52.320;4.970;2022-08-11T11:49:30;27.70;99.90
11629;DHT22;5870;52.320;4.970;2022-08-11T11:51:57;27.80;99.90
11629;DHT22;5870;52.320;4.970;2022-08-11T11:54:28;27.80;99.90
11629;DHT22;5870;52.320;4.970;2022-08-11T11:56:56;27.80;99.90
11629;DHT22;5870;52.320;4.970;2022-08-11T11:59:24;27.90;99.90
11629;DHT22;5870;52.320;4.970;2022-08-11T12:02:12;28.00;99.90
11629;DHT22;5870;52.320;4.970;2022-08-11T12:04:43;28.10;99.90
11629;DHT22;5870;52.320;4.970;2022-08-11T12:07:10;28.10;99.90
11629;DHT22;5870;52.320;4.970;2022-08-11T12:09:56;28.10;99.90
11629;DHT22;5870;52.320;4.970;2022-08-11T12:12:24;28.20;99.90
11629;DHT22;5870;52.320;4.970;2022-08-11T12:15:09;28.30;99.90
11629;DHT22;5870;52.320;4.970;2022-08-11T12:17:36;28.30;99.90
11629;DHT22;5870;52.320;4.970;2022-08-11T12:20:03;28.50;99.90
11629;DHT22;5870;52.320;4.970;2022-08-11T12:22:30;28.60;99.90
11629;DHT22;5870;52.320;4.970;2022-08-11T12:25:16;28.70;99.90
11629;DHT22;5870;52.320;4.970;2022-08-11T12:28:00;28.70;99.90
11629;DHT22;5870;52.320;4.970;2022-08-11T12:30:27;28.80;99.90
11629;DHT22;5870;52.320;4.970;2022-08-11T12:32:53;29.00;99.80
11629;DHT22;5870;52.320;4.970;2022-08-11T12:35:19;29.10;99.50
11629;DHT22;5870;52.320;4.970;2022-08-11T12:37:48;29.20;99.20
11629;DHT22;5870;52.320;4.970;2022-08-11T12:40:19;29.20;98.80
11629;DHT22;5870;52.320;4.970;2022-08-11T12:43:09;29.30;98.50
11629;DHT22;5870;52.320;4.970;2022-08-11T12:45:57;29.30;98.50
11629;DHT22;5870;52.320;4.970;2022-08-11T12:48:32;29.40;97.70
11629;DHT22;5870;52.320;4.970;2022-08-11T12:51:24;29.50;97.40
11629;DHT22;5870;52.320;4.970;2022-08-11T12:54:32;29.60;96.10
11629;DHT22;5870;52.320;4.970;2022-08-11T12:57:05;29.70;95.60
11629;DHT22;5870;52.320;4.970;2022-08-11T12:59:54;29.70;95.60
11629;DHT22;5870;52.320;4.970;2022-08-11T13:02:39;29.90;95.80
11629;DHT22;5870;52.320;4.970;2022-08-11T13:05:24;30.00;94.90
11629;DHT22;5870;52.320;4.970;2022-08-11T13:07:51;29.40;94.40
11629;DHT22;5870;52.320;4.970;2022-08-11T13:10:18;30.20;95.30
11629;DHT22;5870;52.320;4.970;2022-08-11T13:13:06;30.20;94.80
11629;DHT22;5870;52.320;4.970;2022-08-11T13:15:32;30.30;95.70
11629;DHT22;5870;52.320;4.970;2022-08-11T13:17:58;30.30;95.90
11629;DHT22;5870;52.320;4.970;2022-08-11T13:20:25;30.30;95.80
11629;DHT22;5870;52.320;4.970;2022-08-11T13:22:56;30.30;95.30
11629;DHT22;5870;52.320;4.970;2022-08-11T13:25:25;30.40;94.90
11629;DHT22;5870;52.320;4.970;2022-08-11T13:27:54;30.60;94.70
11629;DHT22;5870;52.320;4.970;2022-08-11T13:30:26;30.70;94.60
11629;DHT22;5870;52.320;4.970;2022-08-11T13:33:12;30.70;94.70
11629;DHT22;5870;52.320;4.970;2022-08-11T13:35:38;30.70;94.60
11629;DHT22;5870;52.320;4.970;2022-08-11T13:38:06;30.70;94.40
11629;DHT22;5870;52.320;4.970;2022-08-11T13:40:32;30.80;94.20
11629;DHT22;5870;52.320;4.970;2022-08-11T13:42:58;30.80;94.20
11629;DHT22;5870;52.320;4.970;2022-08-11T13:45:25;31.00;93.90
11629;DHT22;5870;52.320;4.970;2022-08-11T13:47:54;31.10;93.60
11629;DHT22;5870;52.320;4.970;2022-08-11T13:50:20;31.10;93.40
11629;DHT22;5870;52.320;4.970;2022-08-11T13:53:07;31.20;93.40
11629;DHT22;5870;52.320;4.970;2022-08-11T13:55:34;31.20;93.40
11629;DHT22;5870;52.320;4.970;2022-08-11T13:58:00;31.30;93.50
11629;DHT22;5870;52.320;4.970;2022-08-11T14:00:28;31.40;93.00
11629;DHT22;5870;52.320;4.970;2022-08-11T14:02:56;31.40;92.20
11629;DHT22;5870;52.320;4.970;2022-08-11T14:05:27;31.40;92.30
11629;DHT22;5870;52.320;4.970;2022-08-11T14:07:58;31.60;91.90
11629;DHT22;5870;52.320;4.970;2022-08-11T14:10:29;31.60;91.60
11629;DHT22;5870;52.320;4.970;2022-08-11T14:13:00;31.60;91.60
11629;DHT22;5870;52.320;4.970;2022-08-11T14:15:47;31.60;91.30
11629;DHT22;5870;52.320;4.970;2022-08-11T14:18:21;31.70;91.30
11629;DHT22;5870;52.320;4.970;2022-08-11T14:20:53;31.80;91.00
11629;DHT22;5870;52.320;4.970;2022-08-11T14:23:40;31.90;90.80
11629;DHT22;5870;52.320;4.970;2022-08-11T14:26:09;31.90;90.40
11629;DHT22;5870;52.320;4.970;2022-08-11T14:29:00;32.00;90.60
11629;DHT22;5870;52.320;4.970;2022-08-11T14:31:29;32.00;90.40
11629;DHT22;5870;52.320;4.970;2022-08-11T14:34:00;32.10;90.50
11629;DHT22;5870;52.320;4.970;2022-08-11T14:36:29;32.10;90.90
11629;DHT22;5870;52.320;4.970;2022-08-11T14:38:56;32.10;90.60
11629;DHT22;5870;52.320;4.970;2022-08-11T14:41:23;32.10;90.10
11629;DHT22;5870;52.320;4.970;2022-08-11T14:44:09;32.30;89.70
11629;DHT22;5870;52.320;4.970;2022-08-11T14:46:54;32.30;89.80
11629;DHT22;5870;52.320;4.970;2022-08-11T14:49:32;32.40;90.00
11629;DHT22;5870;52.320;4.970;2022-08-11T14:52:00;32.40;90.30
11629;DHT22;5870;52.320;4.970;2022-08-11T14:54:29;32.40;90.10
11629;DHT22;5870;52.320;4.970;2022-08-11T14:57:15;32.40;90.10
11629;DHT22;5870;52.320;4.970;2022-08-11T14:59:42;32.50;90.00
11629;DHT22;5870;52.320;4.970;2022-08-11T15:02:10;32.60;89.70
11629;DHT22;5870;52.320;4.970;2022-08-11T15:04:57;32.60;89.50
11629;DHT22;5870;52.320;4.970;2022-08-11T15:07:23;32.70;89.50
11629;DHT22;5870;52.320;4.970;2022-08-11T15:10:05;32.80;89.00
11629;DHT22;5870;52.320;4.970;2022-08-11T15:12:33;33.00;88.70
11629;DHT22;5870;52.320;4.970;2022-08-11T15:15:00;33.00;89.00
11629;DHT22;5870;52.320;4.970;2022-08-11T15:17:45;33.00;89.20
11629;DHT22;5870;52.320;4.970;2022-08-11T15:20:14;33.00;88.70
11629;DHT22;5870;52.320;4.970;2022-08-11T15:23:01;33.10;88.60
11629;DHT22;5870;52.320;4.970;2022-08-11T15:25:49;33.20;87.60
11629;DHT22;5870;52.320;4.970;2022-08-11T15:28:15;33.30;87.90
11629;DHT22;5870;52.320;4.970;2022-08-11T15:31:02;33.40;87.70
11629;DHT22;5870;52.320;4.970;2022-08-11T15:34:07;33.50;87.70
11629;DHT22;5870;52.320;4.970;2022-08-11T15:36:57;33.50;87.50
11629;DHT22;5870;52.320;4.970;2022-08-11T15:40:08;33.50;87.50
11629;DHT22;5870;52.320;4.970;2022-08-11T15:43:10;33.80;87.40
11629;DHT22;5870;52.320;4.970;2022-08-11T15:45:57;33.80;86.80
11629;DHT22;5870;52.320;4.970;2022-08-11T15:50:57;34.00;86.90
11629;DHT22;5870;52.320;4.970;2022-08-11T15:53:33;34.10;87.30
11629;DHT22;5870;52.320;4.970;2022-08-11T15:56:02;34.10;86.70
11629;DHT22;5870;52.320;4.970;2022-08-11T15:58:32;34.20;86.00
11629;DHT22;5870;52.320;4.970;2022-08-11T16:01:19;34.20;86.60
11629;DHT22;5870;52.320;4.970;2022-08-11T16:04:08;34.30;85.80
11629;DHT22;5870;52.320;4.970;2022-08-11T16:06:58;34.30;85.90
11629;DHT22;5870;52.320;4.970;2022-08-11T16:09:36;34.30;86.00
11629;DHT22;5870;52.320;4.970;2022-08-11T16:12:07;34.40;85.80
11629;DHT22;5870;52.320;4.970;2022-08-11T16:14:36;34.50;85.80
11629;DHT22;5870;52.320;4.970;2022-08-11T16:17:24;34.40;85.10
11629;DHT22;5870;52.320;4.970;2022-08-11T16:19:52;34.40;85.40
11629;DHT22;5870;52.320;4.970;2022-08-11T16:22:23;34.50;84.90
11629;DHT22;5870;52.320;4.970;2022-08-11T16:24:53;35.30;86.10
11629;DHT22;5870;52.320;4.970;2022-08-11T16:27:20;34.40;84.90
11629;DHT22;5870;52.320;4.970;2022-08-11T16:29:46;34.50;84.30
11629;DHT22;5870;52.320;4.970;2022-08-11T16:32:20;34.50;84.40
11629;DHT22;5870;52.320;4.970;2022-08-11T16:34:55;34.60;84.30
11629;DHT22;5870;52.320;4.970;2022-08-11T16:37:41;34.60;84.00
11629;DHT22;5870;52.320;4.970;2022-08-11T16:40:27;34.60;84.10
11629;DHT22;5870;52.320;4.970;2022-08-11T16:42:54;34.70;83.80
11629;DHT22;5870;52.320;4.970;2022-08-11T16:45:40;34.80;83.20
11629;DHT22;5870;52.320;4.970;2022-08-11T16:48:27;34.80;83.20
11629;DHT22;5870;52.320;4.970;2022-08-11T16:50:54;34.80;83.50
11629;DHT22;5870;52.320;4.970;2022-08-11T16:53:21;34.80;83.80
11629;DHT22;5870;52.320;4.970;2022-08-11T16:55:48;34.70;84.20
11629;DHT22;5870;52.320;4.970;2022-08-11T16:58:15;34.80;84.50
11629;DHT22;5870;52.320;4.970;2022-08-11T17:01:00;34.70;85.30
11629;DHT22;5870;52.320;4.970;2022-08-11T17:03:26;34.70;85.90
11629;DHT22;5870;52.320;4.970;2022-08-11T17:06:12;34.70;86.40
11629;DHT22;5870;52.320;4.970;2022-08-11T17:08:57;34.60;86.90
11629;DHT22;5870;52.320;4.970;2022-08-11T17:11:45;34.70;87.10
11629;DHT22;5870;52.320;4.970;2022-08-11T17:14:47;34.60;87.50
11629;DHT22;5870;52.320;4.970;2022-08-11T17:17:17;34.60;87.70
11629;DHT22;5870;52.320;4.970;2022-08-11T17:19:50;34.60;88.20
11629;DHT22;5870;52.320;4.970;2022-08-11T17:22:18;34.60;88.60
11629;DHT22;5870;52.320;4.970;2022-08-11T17:25:04;34.50;88.70
11629;DHT22;5870;52.320;4.970;2022-08-11T17:27:31;34.40;88.60
11629;DHT22;5870;52.320;4.970;2022-08-11T17:30:05;34.30;88.90
11629;DHT22;5870;52.320;4.970;2022-08-11T17:32:38;34.40;88.50
11629;DHT22;5870;52.320;4.970;2022-08-11T17:35:28;34.30;88.30
11629;DHT22;5870;52.320;4.970;2022-08-11T17:38:11;34.30;88.40
11629;DHT22;5870;52.320;4.970;2022-08-11T17:40:53;34.20;88.90
11629;DHT22;5870;52.320;4.970;2022-08-11T17:43:39;34.10;89.00
11629;DHT22;5870;52.320;4.970;2022-08-11T17:46:24;34.10;88.90
11629;DHT22;5870;52.320;4.970;2022-08-11T17:49:11;34.10;89.10
11629;DHT22;5870;52.320;4.970;2022-08-11T17:51:38;34.00;89.50
11629;DHT22;5870;52.320;4.970;2022-08-11T17:54:24;34.00;89.80
11629;DHT22;5870;52.320;4.970;2022-08-11T17:57:09;34.00;90.10
11629;DHT22;5870;52.320;4.970;2022-08-11T17:59:56;34.00;90.10
11629;DHT22;5870;52.320;4.970;2022-08-11T18:02:32;34.00;90.20
11629;DHT22;5870;52.320;4.970;2022-08-11T18:05:18;34.00;90.20
11629;DHT22;5870;52.320;4.970;2022-08-11T18:07:45;33.80;90.70
11629;DHT22;5870;52.320;4.970;2022-08-11T18:10:32;33.70;91.10
11629;DHT22;5870;52.320;4.970;2022-08-11T18:13:19;33.60;91.40
11629;DHT22;5870;52.320;4.970;2022-08-11T18:16:04;33.50;91.90
11629;DHT22;5870;52.320;4.970;2022-08-11T18:18:49;33.50;92.30
11629;DHT22;5870;52.320;4.970;2022-08-11T18:21:35;33.40;92.80
11629;DHT22;5870;52.320;4.970;2022-08-11T18:24:22;33.30;93.20
11629;DHT22;5870;52.320;4.970;2022-08-11T18:27:08;33.30;93.60
11629;DHT22;5870;52.320;4.970;2022-08-11T18:29:57;33.30;93.90
11629;DHT22;5870;52.320;4.970;2022-08-11T18:32:43;33.20;94.10
11629;DHT22;5870;52.320;4.970;2022-08-11T18:35:29;33.00;94.70
11629;DHT22;5870;52.320;4.970;2022-08-11T18:38:15;32.90;95.20
11629;DHT22;5870;52.320;4.970;2022-08-11T18:41:01;32.60;95.80
11629;DHT22;5870;52.320;4.970;2022-08-11T18:43:47;32.30;96.20
11629;DHT22;5870;52.320;4.970;2022-08-11T18:46:35;32.20;96.60
11629;DHT22;5870;52.320;4.970;2022-08-11T18:49:25;31.90;97.00
11629;DHT22;5870;52.320;4.970;2022-08-11T18:52:11;31.60;97.40
11629;DHT22;5870;52.320;4.970;2022-08-11T18:54:59;31.20;97.80
11629;DHT22;5870;52.320;4.970;2022-08-11T18:57:46;30.80;98.50
11629;DHT22;5870;52.320;4.970;2022-08-11T19:00:33;30.50;99.20
11629;DHT22;5870;52.320;4.970;2022-08-11T19:03:20;30.30;99.70
11629;DHT22;5870;52.320;4.970;2022-08-11T19:06:06;30.00;99.90
11629;DHT22;5870;52.320;4.970;2022-08-11T19:08:55;29.90;99.90
11629;DHT22;5870;52.320;4.970;2022-08-11T19:11:40;29.60;99.90
11629;DHT22;5870;52.320;4.970;2022-08-11T19:14:25;29.40;99.90
11629;DHT22;5870;52.320;4.970;2022-08-11T19:17:10;29.20;99.90
11629;DHT22;5870;52.320;4.970;2022-08-11T19:19:56;29.00;99.90
11629;DHT22;5870;52.320;4.970;2022-08-11T19:22:42;28.90;99.90
11629;DHT22;5870;52.320;4.970;2022-08-11T19:25:28;28.80;99.90
11629;DHT22;5870;52.320;4.970;2022-08-11T19:28:15;28.70;99.90
11629;DHT22;5870;52.320;4.970;2022-08-11T19:31:01;28.60;99.90
11629;DHT22;5870;52.320;4.970;2022-08-11T19:33:47;28.50;99.90
11629;DHT22;5870;52.320;4.970;2022-08-11T19:36:31;28.40;99.90
11629;DHT22;5870;52.320;4.970;2022-08-11T19:39:18;28.30;99.90
11629;DHT22;5870;52.320;4.970;2022-08-11T19:42:05;28.30;99.90